Terminal Aerodrome Forecast
Issued by NWS Duluth, MN

Home | Current Version | Previous Version | Text Only | Print | Product List | Glossary On
Versions: 1 2 3 4 5 6 7 8 9 10 11 12 13 14 15 16 17 18 19 20 21 22 23 24 25 26
000
FTUS43 KDLH 170500
TAFINL
TAF
KINL 170528Z 1706/1806 07005KT P6SM SCT040 BKN250
     FM170700 10005KT P6SM BKN014
      TEMPO 1709/1712 5SM BR
     FM171500 13006KT P6SM OVC035
     FM172100 16007KT P6SM SCT035 BKN130
     FM180300 15008KT P6SM VCSH BKN035 OVC060=

USA.gov is the U.S. government's official web portal to all federal, state and local government web resources and services.